Main page
METAR-TAF:

METAR-TAF

Airports :

Bilbao Airport

Bilbao, Spain

latitude: 43-18N, longitude: 002-56W, elevation: 42 m

Current weather observation

The report was made 32 minutes ago, at 15:30 UTC
Wind 15 kt from the East/Southeast, varying between East and South/Southeast
Temperature 24°C
Humidity 27%
Pressure 1011 hPa
Visibility 10 km or more
no clouds below 1500 m and no cumulonimbus

METAR: LEBB 041530Z 12015KT 080V160 CAVOK 24/04 Q1011 NOSIG

Time: 18:02 (16:02 UTC)

Forecast

The report was made 5 hours and 2 minutes ago, at 11:00 UTC
Forecast valid from 04 at 12 UTC to 05 at 12 UTC
Wind 9 kt from the Southeast
Visibility 10 km or more
no clouds below 1500 m and no cumulonimbus
Probability 40% :
Temporary
from 04 at 12 UTC to 04 at 24 UTC
Wind 15 kt from the South with gusts up to 25 kt
Temporary
from 05 at 08 UTC to 05 at 12 UTC
Wind 18 kt from the South with gusts up to 30 kt

TAF: LEBB 041100Z 0412/0512 14009KT CAVOK TX21/0414Z TN12/0506Z PROB40 TEMPO 0412/0424 17015G25KT TEMPO 0508/0512 17018G30KT

Weather observations and forecasts of more than 4000 airports (METAR and TAF reports).

The available stations are represented by yellow and red dots on the map.

Hover mouse over dot to see the name of the station.

Then click to see weather observations and forecasts.

To change the map : click on the green buttons with a black cross to zoom in, on the green button with a dash to zoom out, or on the green arrows for adjacent maps.


METAR-TAF: